createdAt,value
2023-05-02T00:00:09.916Z,536.00
2023-05-02T00:01:09.895Z,534.00
2023-05-02T00:02:10.529Z,530.00
2023-05-02T00:03:09.964Z,531.00
2023-05-02T00:04:10.051Z,530.00
2023-05-02T00:05:09.893Z,530.00
2023-05-02T00:06:10.106Z,530.00
2023-05-02T00:07:09.899Z,529.00
2023-05-02T00:08:09.922Z,530.00
2023-05-02T00:09:09.883Z,530.00
2023-05-02T00:10:09.874Z,531.00
2023-05-02T00:11:09.916Z,531.00
2023-05-02T00:12:09.911Z,532.00
2023-05-02T00:13:09.901Z,532.00
2023-05-02T00:14:09.913Z,533.00
2023-05-02T00:15:09.922Z,535.00
2023-05-02T00:16:09.921Z,536.00
2023-05-02T00:17:09.941Z,535.00
2023-05-02T00:18:10.023Z,536.00
2023-05-02T00:19:09.922Z,537.00
2023-05-02T00:20:09.913Z,537.00
2023-05-02T00:21:09.936Z,538.00
2023-05-02T00:22:09.919Z,540.00
2023-05-02T00:23:09.904Z,541.00
2023-05-02T00:24:09.917Z,541.00
2023-05-02T00:25:09.925Z,543.00
2023-05-02T00:26:10.042Z,541.00
2023-05-02T00:27:09.870Z,539.00
2023-05-02T00:28:09.905Z,541.00
2023-05-02T00:29:09.893Z,539.00
2023-05-02T00:30:09.916Z,539.00
2023-05-02T00:31:10.141Z,537.00
2023-05-02T00:32:09.874Z,538.00
2023-05-02T00:33:09.912Z,536.00
2023-05-02T00:34:09.885Z,537.00
2023-05-02T00:35:09.888Z,538.00
2023-05-02T00:36:09.894Z,540.00
2023-05-02T00:37:09.885Z,538.00
2023-05-02T00:38:09.886Z,537.00
2023-05-02T00:39:09.903Z,536.00
2023-05-02T00:40:09.876Z,538.00
2023-05-02T00:41:10.028Z,538.00
2023-05-02T00:42:09.910Z,538.00
2023-05-02T00:43:09.879Z,537.00
2023-05-02T00:44:09.882Z,537.00
2023-05-02T00:45:09.908Z,537.00
2023-05-02T00:46:10.107Z,533.00
2023-05-02T00:47:09.903Z,532.00
2023-05-02T00:48:09.944Z,533.00
2023-05-02T00:49:09.893Z,533.00
2023-05-02T00:50:09.902Z,534.00
2023-05-02T00:51:10.031Z,535.00
2023-05-02T00:52:09.904Z,534.00
2023-05-02T00:53:09.871Z,534.00
2023-05-02T00:54:09.886Z,533.00
2023-05-02T00:55:09.889Z,531.00
2023-05-02T00:56:10.073Z,533.00
2023-05-02T00:57:09.899Z,533.00
2023-05-02T00:58:09.907Z,536.00
2023-05-02T00:59:09.904Z,537.00
2023-05-02T01:00:09.903Z,535.00
2023-05-02T01:01:09.997Z,535.00
2023-05-02T01:02:10.055Z,533.00
2023-05-02T01:03:09.975Z,531.00
2023-05-02T01:04:10.027Z,532.00
2023-05-02T01:05:09.911Z,533.00
2023-05-02T01:06:10.147Z,533.00
2023-05-02T01:07:09.886Z,536.00
2023-05-02T01:08:09.911Z,535.00
2023-05-02T01:09:09.977Z,537.00
2023-05-02T01:10:09.921Z,536.00
2023-05-02T01:11:10.062Z,535.00
2023-05-02T01:12:09.934Z,536.00
2023-05-02T01:13:09.898Z,537.00
2023-05-02T01:14:09.911Z,538.00
2023-05-02T01:15:09.931Z,539.00
2023-05-02T01:16:10.097Z,539.00
2023-05-02T01:17:09.937Z,538.00
2023-05-02T01:18:09.983Z,539.00
2023-05-02T01:19:09.939Z,537.00
2023-05-02T01:20:10.031Z,538.00
2023-05-02T01:21:10.112Z,538.00
2023-05-02T01:22:09.950Z,537.00
2023-05-02T01:23:09.969Z,536.00
2023-05-02T01:24:09.965Z,537.00
2023-05-02T01:25:09.975Z,536.00
2023-05-02T01:26:10.055Z,536.00
2023-05-02T01:27:09.988Z,536.00
2023-05-02T01:28:09.993Z,537.00
2023-05-02T01:29:09.944Z,537.00
2023-05-02T01:30:09.977Z,535.00
2023-05-02T01:31:10.106Z,536.00
2023-05-02T01:32:10.018Z,539.00
2023-05-02T01:33:10.046Z,539.00
2023-05-02T01:34:10.016Z,536.00
2023-05-02T01:35:09.998Z,533.00
2023-05-02T01:36:10.038Z,535.00
2023-05-02T01:37:10.026Z,534.00
2023-05-02T01:38:10.012Z,534.00
2023-05-02T01:39:10.043Z,533.00
2023-05-02T01:40:10.016Z,533.00
2023-05-02T01:41:10.084Z,532.00
2023-05-02T01:42:10.040Z,532.00
2023-05-02T01:43:10.033Z,531.00
2023-05-02T01:44:10.045Z,533.00
2023-05-02T01:45:10.043Z,533.00
2023-05-02T01:46:10.080Z,533.00
2023-05-02T01:47:10.270Z,535.00
2023-05-02T01:48:10.157Z,537.00
2023-05-02T01:49:10.083Z,538.00
2023-05-02T01:50:10.080Z,536.00
2023-05-02T01:51:10.100Z,534.00
2023-05-02T01:52:10.207Z,534.00
2023-05-02T01:53:10.075Z,534.00
2023-05-02T01:54:10.067Z,536.00
2023-05-02T01:55:10.141Z,536.00
2023-05-02T01:56:10.605Z,535.00
2023-05-02T01:57:10.109Z,535.00
2023-05-02T01:58:10.122Z,537.00
2023-05-02T01:59:10.146Z,538.00
2023-05-02T02:00:10.076Z,537.00
2023-05-02T02:01:10.124Z,537.00
2023-05-02T02:02:10.100Z,537.00
2023-05-02T02:03:10.147Z,536.00
2023-05-02T02:04:10.131Z,537.00
2023-05-02T02:05:10.113Z,537.00
2023-05-02T02:06:10.623Z,538.00
2023-05-02T02:07:10.088Z,539.00
2023-05-02T02:08:10.094Z,541.00
2023-05-02T02:09:10.109Z,540.00
2023-05-02T02:10:10.135Z,539.00
2023-05-02T02:11:10.111Z,538.00
2023-05-02T02:12:10.123Z,537.00
2023-05-02T02:13:10.138Z,540.00
2023-05-02T02:14:10.148Z,541.00
2023-05-02T02:15:10.125Z,541.00
2023-05-02T02:16:10.148Z,541.00
2023-05-02T02:17:10.174Z,539.00
2023-05-02T02:18:10.210Z,537.00
2023-05-02T02:19:10.146Z,537.00
2023-05-02T02:20:10.192Z,538.00
2023-05-02T02:21:10.652Z,538.00
2023-05-02T02:22:10.149Z,536.00
2023-05-02T02:23:10.211Z,534.00
2023-05-02T02:24:10.231Z,536.00
2023-05-02T02:25:10.189Z,536.00
2023-05-02T02:26:10.589Z,535.00
2023-05-02T02:27:10.201Z,536.00
2023-05-02T02:28:10.255Z,535.00
2023-05-02T02:29:10.217Z,537.00
2023-05-02T02:30:10.234Z,535.00
2023-05-02T02:31:10.260Z,537.00
2023-05-02T02:32:10.213Z,539.00
2023-05-02T02:33:10.233Z,539.00
2023-05-02T02:34:10.283Z,538.00
2023-05-02T02:35:10.285Z,538.00
2023-05-02T02:36:10.294Z,537.00
2023-05-02T02:37:10.292Z,536.00
2023-05-02T02:38:10.264Z,536.00
2023-05-02T02:39:10.278Z,534.00
2023-05-02T02:40:10.267Z,532.00
2023-05-02T02:41:10.634Z,531.00
2023-05-02T02:42:10.291Z,529.00
2023-05-02T02:43:10.334Z,528.00
2023-05-02T02:44:12.204Z,529.00
2023-05-02T02:45:10.316Z,527.00
2023-05-02T02:46:10.354Z,528.00
2023-05-02T02:47:10.318Z,532.00
2023-05-02T02:48:10.295Z,533.00
2023-05-02T02:49:10.268Z,535.00
2023-05-02T02:50:10.279Z,536.00
2023-05-02T02:51:10.302Z,537.00
2023-05-02T02:52:10.302Z,536.00
2023-05-02T02:53:10.256Z,535.00
2023-05-02T02:54:25.482Z,533.00
2023-05-02T02:55:11.214Z,532.00
2023-05-02T02:56:10.736Z,532.00
2023-05-02T02:57:10.234Z,533.00
2023-05-02T02:58:10.205Z,533.00
2023-05-02T02:59:10.189Z,533.00
2023-05-02T03:00:10.205Z,535.00
2023-05-02T03:01:10.243Z,537.00
2023-05-02T03:02:10.424Z,538.00
2023-05-02T03:03:10.213Z,537.00
2023-05-02T03:04:10.165Z,535.00
2023-05-02T03:05:10.176Z,537.00
2023-05-02T03:06:10.221Z,537.00
2023-05-02T03:07:10.134Z,539.00
2023-05-02T03:08:10.152Z,541.00
2023-05-02T03:09:10.156Z,540.00
2023-05-02T03:10:10.118Z,540.00
2023-05-02T03:11:10.117Z,541.00
2023-05-02T03:12:10.115Z,540.00
2023-05-02T03:13:10.124Z,540.00
2023-05-02T03:14:10.085Z,542.00
2023-05-02T03:15:10.049Z,543.00
2023-05-02T03:16:10.156Z,543.00
2023-05-02T03:17:10.108Z,543.00
2023-05-02T03:18:10.079Z,538.00
2023-05-02T03:19:10.038Z,537.00
2023-05-02T03:20:10.081Z,539.00
2023-05-02T03:21:10.046Z,541.00
2023-05-02T03:22:10.140Z,539.00
2023-05-02T03:23:10.003Z,541.00
2023-05-02T03:24:10.015Z,540.00
2023-05-02T03:25:10.547Z,544.00
2023-05-02T03:26:10.029Z,543.00
2023-05-02T03:27:10.109Z,541.00
2023-05-02T03:28:10.028Z,539.00
2023-05-02T03:29:09.951Z,541.00
2023-05-02T03:30:09.967Z,541.00
2023-05-02T03:31:10.087Z,541.00
2023-05-02T03:32:10.068Z,539.00
2023-05-02T03:33:10.113Z,538.00
2023-05-02T03:34:10.011Z,539.00
2023-05-02T03:35:10.039Z,538.00
2023-05-02T03:36:10.034Z,539.00
2023-05-02T03:37:10.042Z,540.00
2023-05-02T03:38:10.050Z,541.00
2023-05-02T03:39:10.055Z,542.00
2023-05-02T03:40:10.040Z,542.00
2023-05-02T03:41:10.069Z,540.00
2023-05-02T03:42:10.018Z,538.00
2023-05-02T03:43:10.024Z,539.00
2023-05-02T03:44:10.096Z,543.00
2023-05-02T03:45:10.036Z,542.00
2023-05-02T03:46:10.032Z,540.00
2023-05-02T03:47:10.146Z,540.00
2023-05-02T03:48:10.142Z,539.00
2023-05-02T03:49:10.072Z,538.00
2023-05-02T03:50:10.103Z,535.00
2023-05-02T03:51:10.162Z,535.00
2023-05-02T03:52:10.149Z,536.00
2023-05-02T03:53:10.147Z,539.00
2023-05-02T03:54:10.108Z,541.00
2023-05-02T03:55:10.175Z,540.00
2023-05-02T03:56:10.174Z,542.00
2023-05-02T03:57:10.620Z,543.00
2023-05-02T03:58:10.211Z,542.00
2023-05-02T03:59:10.183Z,541.00
2023-05-02T04:00:10.165Z,539.00
2023-05-02T04:01:10.175Z,539.00
2023-05-02T04:02:10.254Z,539.00
2023-05-02T04:03:10.229Z,540.00
2023-05-02T04:04:10.287Z,541.00
2023-05-02T04:05:10.230Z,543.00
2023-05-02T04:06:10.236Z,546.00
2023-05-02T04:07:10.221Z,548.00
2023-05-02T04:08:10.256Z,549.00
2023-05-02T04:09:10.258Z,546.00
2023-05-02T04:10:10.273Z,544.00
2023-05-02T04:11:10.261Z,542.00
2023-05-02T04:12:10.293Z,542.00
2023-05-02T04:13:10.268Z,542.00
2023-05-02T04:14:10.365Z,542.00
2023-05-02T04:15:10.294Z,544.00
2023-05-02T04:16:10.397Z,543.00
2023-05-02T04:17:10.447Z,541.00
2023-05-02T04:18:10.393Z,541.00
2023-05-02T04:19:10.475Z,541.00
2023-05-02T04:20:10.374Z,541.00
2023-05-02T04:21:10.393Z,542.00
2023-05-02T04:22:10.653Z,542.00
2023-05-02T04:23:10.364Z,543.00
2023-05-02T04:24:10.466Z,541.00
2023-05-02T04:25:10.434Z,540.00
2023-05-02T04:26:10.402Z,538.00
2023-05-02T04:27:11.951Z,535.00
2023-05-02T04:28:10.591Z,536.00
2023-05-02T04:29:10.580Z,537.00
2023-05-02T04:30:10.614Z,539.00
2023-05-02T04:31:10.702Z,539.00
2023-05-02T04:32:10.650Z,537.00
2023-05-02T04:33:10.625Z,536.00
2023-05-02T04:34:10.627Z,536.00
2023-05-02T04:35:10.643Z,536.00
2023-05-02T04:36:10.651Z,538.00
2023-05-02T04:37:10.687Z,539.00
2023-05-02T04:38:10.699Z,539.00
2023-05-02T04:39:10.681Z,540.00
2023-05-02T04:40:10.647Z,541.00
2023-05-02T04:41:10.689Z,542.00
2023-05-02T04:42:10.745Z,543.00
2023-05-02T04:43:10.735Z,542.00
2023-05-02T04:44:10.735Z,540.00
2023-05-02T04:45:10.715Z,539.00
2023-05-02T04:46:10.814Z,538.00
2023-05-02T04:47:10.792Z,536.00
2023-05-02T04:48:10.834Z,536.00
2023-05-02T04:49:11.624Z,537.00
2023-05-02T04:50:10.806Z,538.00
2023-05-02T04:51:10.832Z,538.00
2023-05-02T04:52:10.842Z,539.00
2023-05-02T04:53:10.837Z,541.00
2023-05-02T04:54:10.851Z,541.00
2023-05-02T04:55:10.880Z,542.00
2023-05-02T04:56:10.889Z,541.00
2023-05-02T04:57:10.935Z,541.00
2023-05-02T04:58:10.915Z,538.00
2023-05-02T04:59:10.927Z,537.00
2023-05-02T05:00:10.950Z,536.00
2023-05-02T05:01:11.037Z,535.00
2023-05-02T05:02:11.105Z,536.00
2023-05-02T05:03:11.118Z,538.00
2023-05-02T05:04:11.194Z,540.00
2023-05-02T05:05:11.054Z,541.00
2023-05-02T05:06:11.098Z,543.00
2023-05-02T05:07:11.075Z,544.00
2023-05-02T05:08:11.079Z,546.00
2023-05-02T05:09:11.109Z,546.00
2023-05-02T05:10:11.134Z,545.00
2023-05-02T05:11:11.133Z,543.00
2023-05-02T05:12:11.144Z,542.00
2023-05-02T05:13:11.197Z,542.00
2023-05-02T05:14:11.179Z,541.00
2023-05-02T05:15:11.196Z,540.00
2023-05-02T05:16:11.257Z,540.00
2023-05-02T05:17:11.232Z,541.00
2023-05-02T05:18:11.313Z,541.00
2023-05-02T05:19:11.254Z,542.00
2023-05-02T05:20:11.306Z,539.00
2023-05-02T05:21:11.312Z,538.00
2023-05-02T05:22:11.300Z,539.00
2023-05-02T05:23:11.321Z,540.00
2023-05-02T05:24:11.328Z,541.00
2023-05-02T05:25:11.342Z,542.00
2023-05-02T05:26:11.387Z,543.00
2023-05-02T05:27:11.405Z,543.00
2023-05-02T05:28:11.370Z,542.00
2023-05-02T05:29:11.436Z,539.00
2023-05-02T05:30:11.442Z,538.00
2023-05-02T05:31:11.465Z,540.00
2023-05-02T05:32:11.538Z,540.00
2023-05-02T05:33:11.552Z,540.00
2023-05-02T05:34:11.544Z,540.00
2023-05-02T05:35:11.553Z,539.00
2023-05-02T05:36:11.552Z,538.00
2023-05-02T05:37:11.554Z,539.00
2023-05-02T05:38:11.525Z,539.00
2023-05-02T05:39:11.568Z,541.00
2023-05-02T05:40:11.582Z,539.00
2023-05-02T05:41:11.585Z,538.00
2023-05-02T05:42:11.585Z,538.00
2023-05-02T05:43:11.595Z,538.00
2023-05-02T05:44:11.596Z,539.00
2023-05-02T05:45:11.647Z,539.00
2023-05-02T05:46:11.603Z,540.00
2023-05-02T05:47:11.710Z,541.00
2023-05-02T05:48:11.784Z,542.00
2023-05-02T05:49:11.693Z,541.00
2023-05-02T05:50:11.725Z,543.00
2023-05-02T05:51:11.713Z,545.00
2023-05-02T05:52:11.747Z,546.00
2023-05-02T05:53:11.736Z,548.00
2023-05-02T05:54:11.748Z,549.00
2023-05-02T05:55:11.774Z,551.00
2023-05-02T05:56:11.787Z,553.00
2023-05-02T05:57:11.813Z,552.00
2023-05-02T05:58:11.800Z,553.00
2023-05-02T05:59:11.814Z,557.00
2023-05-02T06:00:11.901Z,561.00
2023-05-02T06:01:11.868Z,563.00
2023-05-02T06:02:11.914Z,564.00
2023-05-02T06:03:11.895Z,569.00
2023-05-02T06:04:12.000Z,608.00
2023-05-02T06:05:11.930Z,646.00
2023-05-02T06:06:11.925Z,657.00
2023-05-02T06:07:11.919Z,664.00
2023-05-02T06:08:11.885Z,670.00
2023-05-02T06:09:11.868Z,678.00
2023-05-02T06:10:11.902Z,693.00
2023-05-02T06:11:11.885Z,736.00
2023-05-02T06:12:11.888Z,753.00
2023-05-02T06:13:11.900Z,764.00
2023-05-02T06:14:11.909Z,781.00
2023-05-02T06:15:11.913Z,796.00
2023-05-02T06:16:11.907Z,811.00
2023-05-02T06:17:11.937Z,829.00
2023-05-02T06:18:11.957Z,864.00
2023-05-02T06:19:11.906Z,882.00
2023-05-02T06:20:11.945Z,894.00
2023-05-02T06:21:11.908Z,901.00
2023-05-02T06:22:12.218Z,910.00
2023-05-02T06:23:11.981Z,924.00
2023-05-02T06:24:12.064Z,941.00
2023-05-02T06:25:11.986Z,957.00
2023-05-02T06:26:11.980Z,970.00
2023-05-02T06:27:12.197Z,982.00
2023-05-02T06:28:12.004Z,1003.00
2023-05-02T06:29:12.011Z,1015.00
2023-05-02T06:30:12.025Z,1021.00
2023-05-02T06:31:12.065Z,1024.00
2023-05-02T06:32:12.088Z,1029.00
2023-05-02T06:33:12.201Z,1035.00
2023-05-02T06:34:12.155Z,1046.00
2023-05-02T06:35:12.182Z,1054.00
2023-05-02T06:36:12.225Z,1063.00
2023-05-02T06:37:12.258Z,1077.00
2023-05-02T06:38:12.730Z,1107.00
2023-05-02T06:39:12.398Z,1110.00
2023-05-02T06:40:12.442Z,1119.00
2023-05-02T06:41:12.495Z,1132.00
2023-05-02T06:42:12.560Z,1144.00
2023-05-02T06:43:12.616Z,1161.00
2023-05-02T06:44:12.682Z,1174.00
2023-05-02T06:45:12.721Z,1185.00
2023-05-02T06:46:12.784Z,1191.00
2023-05-02T06:47:12.945Z,1202.00
2023-05-02T06:48:12.947Z,1208.00
2023-05-02T06:49:12.984Z,1216.00
2023-05-02T06:50:13.005Z,1223.00
2023-05-02T06:51:13.050Z,1239.00
2023-05-02T06:52:13.684Z,1254.00
2023-05-02T06:53:13.136Z,1302.00
2023-05-02T06:54:13.168Z,1326.00
2023-05-02T06:55:13.195Z,1330.00
2023-05-02T06:56:13.348Z,1330.00
2023-05-02T06:57:13.317Z,1334.00
2023-05-02T06:58:13.348Z,1340.00
2023-05-02T06:59:13.445Z,1362.00
2023-05-02T07:00:13.453Z,1423.00
2023-05-02T07:01:13.550Z,1417.00
2023-05-02T07:02:13.525Z,1416.00
2023-05-02T07:03:13.661Z,1410.00
2023-05-02T07:04:13.667Z,1415.00
2023-05-02T07:05:13.704Z,1417.00
2023-05-02T07:06:13.780Z,1417.00
2023-05-02T07:07:13.763Z,1425.00
2023-05-02T07:08:13.822Z,1437.00
2023-05-02T07:09:13.844Z,1451.00
2023-05-02T07:10:13.846Z,1473.00
2023-05-02T07:11:13.887Z,1489.00
2023-05-02T07:12:13.940Z,1506.00
2023-05-02T07:13:13.981Z,1513.00
2023-05-02T07:14:14.001Z,1515.00
2023-05-02T07:15:14.003Z,1513.00
2023-05-02T07:16:14.086Z,1534.00
2023-05-02T07:17:14.118Z,1576.00
2023-05-02T07:18:14.292Z,1605.00
2023-05-02T07:19:14.179Z,1610.00
2023-05-02T07:20:14.143Z,1614.00
2023-05-02T07:21:14.195Z,1616.00
2023-05-02T07:22:14.226Z,1515.00
2023-05-02T07:23:14.298Z,1480.00
2023-05-02T07:24:14.307Z,1396.00
2023-05-02T07:25:14.374Z,1391.00
2023-05-02T07:26:14.401Z,1397.00
2023-05-02T07:27:14.489Z,1390.00
2023-05-02T07:28:14.545Z,1358.00
2023-05-02T07:29:14.634Z,1262.00
2023-05-02T07:30:14.612Z,1159.00
2023-05-02T07:31:14.732Z,1136.00
2023-05-02T07:32:14.701Z,1163.00
2023-05-02T07:33:14.700Z,1237.00
2023-05-02T07:34:14.630Z,1237.00
2023-05-02T07:35:14.619Z,1240.00
2023-05-02T07:36:14.632Z,1202.00
2023-05-02T07:37:14.657Z,1050.00
2023-05-02T07:38:14.664Z,1062.00
2023-05-02T07:39:14.670Z,1044.00
2023-05-02T07:40:14.674Z,1123.00
2023-05-02T07:41:14.772Z,1058.00
2023-05-02T07:42:14.681Z,1028.00
2023-05-02T07:43:14.679Z,1024.00
2023-05-02T07:44:14.756Z,1030.00
2023-05-02T07:45:14.729Z,1020.00
2023-05-02T07:46:14.889Z,1006.00
2023-05-02T07:47:14.721Z,1006.00
2023-05-02T07:48:14.762Z,1071.00
2023-05-02T07:49:14.805Z,1069.00
2023-05-02T07:50:14.880Z,1079.00
2023-05-02T07:51:15.802Z,1081.00
2023-05-02T07:52:14.784Z,1091.00
2023-05-02T07:53:14.789Z,1091.00
2023-05-02T07:54:14.801Z,1101.00
2023-05-02T07:55:14.774Z,1101.00
2023-05-02T07:56:14.773Z,1105.00
2023-05-02T07:57:14.756Z,1101.00
2023-05-02T07:58:14.761Z,1070.00
2023-05-02T07:59:14.744Z,952.00
2023-05-02T08:00:14.727Z,930.00
2023-05-02T08:01:14.739Z,914.00
2023-05-02T08:02:14.740Z,882.00
2023-05-02T08:03:14.951Z,856.00
2023-05-02T08:04:15.032Z,852.00
2023-05-02T08:05:14.858Z,853.00
2023-05-02T08:06:14.757Z,832.00
2023-05-02T08:07:14.688Z,816.00
2023-05-02T08:08:14.737Z,814.00
2023-05-02T08:09:14.806Z,831.00
2023-05-02T08:10:14.822Z,875.00
2023-05-02T08:11:14.881Z,1024.00
2023-05-02T08:12:14.871Z,1126.00
2023-05-02T08:13:14.958Z,1153.00
2023-05-02T08:14:14.934Z,1167.00
2023-05-02T08:15:14.987Z,1208.00
2023-05-02T08:16:14.965Z,1212.00
2023-05-02T08:17:14.975Z,1216.00
2023-05-02T08:18:15.101Z,1221.00
2023-05-02T08:19:14.987Z,1223.00
2023-05-02T08:20:14.993Z,1226.00
2023-05-02T08:21:14.993Z,1234.00
2023-05-02T08:22:14.970Z,1248.00
2023-05-02T08:23:15.020Z,1259.00
2023-05-02T08:24:15.029Z,1270.00
2023-05-02T08:25:14.956Z,1323.00
2023-05-02T08:26:14.974Z,1337.00
2023-05-02T08:27:15.017Z,1341.00
2023-05-02T08:28:15.030Z,1346.00
2023-05-02T08:29:15.074Z,1350.00
2023-05-02T08:30:15.066Z,1350.00
2023-05-02T08:31:15.191Z,1352.00
2023-05-02T08:32:15.194Z,1361.00
2023-05-02T08:33:15.388Z,1360.00
2023-05-02T08:34:15.294Z,1359.00
2023-05-02T08:35:15.336Z,1358.00
2023-05-02T08:36:15.430Z,1360.00
2023-05-02T08:37:15.460Z,1364.00
2023-05-02T08:38:15.548Z,1369.00
2023-05-02T08:39:15.588Z,1369.00
2023-05-02T08:40:16.028Z,1379.00
2023-05-02T08:41:15.688Z,1395.00
2023-05-02T08:42:15.724Z,1398.00
2023-05-02T08:43:16.287Z,1402.00
2023-05-02T08:44:15.878Z,1404.00
2023-05-02T08:45:16.748Z,1400.00
2023-05-02T08:46:16.160Z,1395.00
2023-05-02T08:47:16.100Z,1393.00
2023-05-02T08:48:16.107Z,1392.00
2023-05-02T08:49:16.154Z,1392.00
2023-05-02T08:50:16.198Z,1386.00
2023-05-02T08:51:16.246Z,1382.00
2023-05-02T08:52:16.312Z,1374.00
2023-05-02T08:53:16.379Z,1373.00
2023-05-02T08:54:16.423Z,1370.00
2023-05-02T08:55:16.519Z,1370.00
2023-05-02T08:56:16.553Z,1371.00
2023-05-02T08:57:16.664Z,1369.00
2023-05-02T08:58:17.758Z,1367.00
2023-05-02T08:59:16.728Z,1366.00
2023-05-02T09:00:16.788Z,1366.00
2023-05-02T09:01:16.841Z,1367.00
2023-05-02T09:02:16.898Z,1374.00
2023-05-02T09:03:16.974Z,1386.00
2023-05-02T09:04:17.066Z,1394.00
2023-05-02T09:05:17.120Z,1402.00
2023-05-02T09:06:17.208Z,1434.00
2023-05-02T09:07:17.203Z,1453.00
2023-05-02T09:08:17.313Z,1464.00
2023-05-02T09:09:19.085Z,1464.00
2023-05-02T09:10:17.351Z,1475.00
2023-05-02T09:11:17.437Z,1485.00
2023-05-02T09:12:17.479Z,1478.00
2023-05-02T09:13:17.553Z,1478.00
2023-05-02T09:14:17.604Z,1479.00
2023-05-02T09:15:20.543Z,1490.00
2023-05-02T09:16:17.668Z,1540.00
2023-05-02T09:17:17.639Z,1553.00
2023-05-02T09:18:17.622Z,1566.00
2023-05-02T09:19:17.595Z,1581.00
2023-05-02T09:20:17.590Z,1586.00
2023-05-02T09:21:20.477Z,1592.00
2023-05-02T09:22:17.565Z,1591.00
2023-05-02T09:23:17.570Z,1586.00
2023-05-02T09:24:17.540Z,1593.00
2023-05-02T09:25:17.565Z,1604.00
2023-05-02T09:26:17.527Z,1624.00
2023-05-02T09:27:17.523Z,1635.00
2023-05-02T09:28:17.532Z,1641.00
2023-05-02T09:29:17.522Z,1645.00
2023-05-02T09:30:17.522Z,1654.00
2023-05-02T09:31:26.999Z,1661.00
2023-05-02T09:32:18.550Z,1672.00
2023-05-02T09:33:19.218Z,1680.00
2023-05-02T09:34:17.601Z,1692.00
2023-05-02T09:35:17.512Z,1709.00
2023-05-02T09:36:17.507Z,1724.00
2023-05-02T09:37:17.489Z,1863.00
2023-05-02T09:38:17.782Z,1860.00
2023-05-02T09:39:17.507Z,1821.00
2023-05-02T09:40:17.465Z,1784.00
2023-05-02T09:41:17.456Z,1779.00
2023-05-02T09:42:17.459Z,1770.00
2023-05-02T09:43:17.485Z,1773.00
2023-05-02T09:44:17.436Z,1780.00
2023-05-02T09:45:17.425Z,1796.00
2023-05-02T09:46:17.479Z,1823.00
2023-05-02T09:47:17.463Z,1832.00
2023-05-02T09:48:17.441Z,1838.00
2023-05-02T09:49:17.434Z,1834.00
2023-05-02T09:50:17.389Z,1745.00
2023-05-02T09:51:17.373Z,1714.00
2023-05-02T09:52:17.402Z,1723.00
2023-05-02T09:53:17.806Z,1801.00
2023-05-02T09:54:17.450Z,1528.00
2023-05-02T09:55:17.513Z,1552.00
2023-05-02T09:56:18.587Z,1570.00
2023-05-02T09:57:17.532Z,1632.00
2023-05-02T09:58:17.863Z,1531.00
2023-05-02T09:59:17.612Z,1510.00
2023-05-02T10:00:17.733Z,1504.00
2023-05-02T10:01:17.756Z,1494.00
2023-05-02T10:02:17.776Z,1628.00
2023-05-02T10:03:17.944Z,1576.00
2023-05-02T10:04:17.937Z,1557.00
2023-05-02T10:05:18.011Z,1538.00
2023-05-02T10:06:18.032Z,1520.00
2023-05-02T10:07:18.045Z,1520.00
2023-05-02T10:08:18.290Z,1528.00
2023-05-02T10:09:21.403Z,1516.00
2023-05-02T10:10:18.209Z,1515.00
2023-05-02T10:11:18.111Z,1521.00
2023-05-02T10:12:18.123Z,1475.00
2023-05-02T10:13:18.326Z,1464.00
2023-05-02T10:14:18.102Z,1445.00
2023-05-02T10:15:18.100Z,1410.00
2023-05-02T10:16:18.120Z,1416.00
2023-05-02T10:17:18.072Z,1421.00
2023-05-02T10:18:18.139Z,1397.00
2023-05-02T10:19:18.071Z,1369.00
2023-05-02T10:20:18.062Z,1370.00
2023-05-02T10:21:18.007Z,1459.00
2023-05-02T10:22:18.017Z,1379.00
2023-05-02T10:23:18.014Z,1370.00
2023-05-02T10:24:18.036Z,1376.00
2023-05-02T10:25:18.032Z,1380.00
2023-05-02T10:26:18.016Z,1470.00
2023-05-02T10:27:18.024Z,1502.00
2023-05-02T10:28:18.007Z,1504.00
2023-05-02T10:29:18.003Z,1499.00
2023-05-02T10:30:18.000Z,1352.00
2023-05-02T10:31:18.003Z,1297.00
2023-05-02T10:32:17.963Z,1285.00
2023-05-02T10:33:17.948Z,1289.00
2023-05-02T10:34:17.948Z,1328.00
2023-05-02T10:35:17.938Z,1273.00
2023-05-02T10:36:17.934Z,1267.00
2023-05-02T10:37:17.940Z,1257.00
2023-05-02T10:38:18.023Z,1259.00
2023-05-02T10:39:17.919Z,1338.00
2023-05-02T10:40:17.960Z,1374.00
2023-05-02T10:41:17.909Z,1401.00
2023-05-02T10:42:17.899Z,1415.00
2023-05-02T10:43:18.239Z,1385.00
2023-05-02T10:44:17.988Z,1385.00
2023-05-02T10:45:17.988Z,1365.00
2023-05-02T10:46:18.156Z,1353.00
2023-05-02T10:47:18.103Z,1364.00
2023-05-02T10:48:18.189Z,1366.00
2023-05-02T10:49:18.261Z,1385.00
2023-05-02T10:50:18.297Z,1411.00
2023-05-02T10:51:18.335Z,1420.00
2023-05-02T10:52:18.423Z,1426.00
2023-05-02T10:53:18.472Z,1433.00
2023-05-02T10:54:18.535Z,1418.00
2023-05-02T10:55:18.576Z,1428.00
2023-05-02T10:56:18.612Z,1356.00
2023-05-02T10:57:18.692Z,1399.00
2023-05-02T10:58:18.826Z,1408.00
2023-05-02T10:59:18.792Z,1434.00
2023-05-02T11:00:18.841Z,1438.00
2023-05-02T11:01:18.995Z,1439.00
2023-05-02T11:02:19.011Z,1436.00
2023-05-02T11:03:19.383Z,1393.00
2023-05-02T11:04:19.090Z,1404.00
2023-05-02T11:05:19.121Z,1407.00
2023-05-02T11:06:19.154Z,1425.00
2023-05-02T11:07:19.275Z,1422.00
2023-05-02T11:08:21.230Z,1421.00
2023-05-02T11:09:19.241Z,1424.00
2023-05-02T11:10:19.317Z,1432.00
2023-05-02T11:11:19.267Z,1441.00
2023-05-02T11:12:19.276Z,1448.00
2023-05-02T11:13:19.251Z,1343.00
2023-05-02T11:14:20.296Z,1334.00
2023-05-02T11:15:19.233Z,1401.00
2023-05-02T11:16:19.306Z,1413.00
2023-05-02T11:17:19.276Z,1403.00
2023-05-02T11:18:19.340Z,1410.00
2023-05-02T11:19:19.231Z,1424.00
2023-05-02T11:20:19.231Z,1425.00
2023-05-02T11:21:19.234Z,1425.00
2023-05-02T11:22:19.269Z,1423.00
2023-05-02T11:23:19.330Z,1415.00
2023-05-02T11:24:19.203Z,1412.00
2023-05-02T11:25:19.148Z,1408.00
2023-05-02T11:26:19.195Z,1408.00
2023-05-02T11:27:19.155Z,1383.00
2023-05-02T11:28:19.221Z,1381.00
2023-05-02T11:29:19.116Z,1383.00
2023-05-02T11:30:19.137Z,1400.00
2023-05-02T11:31:19.125Z,1422.00
2023-05-02T11:32:19.170Z,1434.00
2023-05-02T11:33:19.163Z,1440.00
2023-05-02T11:34:19.873Z,1452.00
2023-05-02T11:35:19.130Z,1457.00
2023-05-02T11:36:19.201Z,1463.00
2023-05-02T11:37:19.084Z,1463.00
2023-05-02T11:38:19.411Z,1460.00
2023-05-02T11:39:19.248Z,1458.00
2023-05-02T11:40:19.252Z,1459.00
2023-05-02T11:41:19.291Z,1452.00
2023-05-02T11:42:19.353Z,1439.00
2023-05-02T11:43:19.385Z,1432.00
2023-05-02T11:44:19.433Z,1431.00
2023-05-02T11:45:19.501Z,1430.00
2023-05-02T11:46:19.593Z,1430.00
2023-05-02T11:47:19.600Z,1427.00
2023-05-02T11:48:19.621Z,1427.00
2023-05-02T11:49:19.712Z,1423.00
2023-05-02T11:50:19.769Z,1417.00
2023-05-02T11:51:19.832Z,1415.00
2023-05-02T11:52:19.880Z,1413.00
2023-05-02T11:53:19.924Z,1411.00
2023-05-02T11:54:19.971Z,1410.00
2023-05-02T11:55:19.994Z,1406.00
2023-05-02T11:56:20.034Z,1403.00
2023-05-02T11:57:20.152Z,1399.00
2023-05-02T11:58:20.189Z,1403.00
2023-05-02T11:59:20.213Z,1401.00
2023-05-02T12:00:20.306Z,1403.00
2023-05-02T12:01:20.374Z,1399.00
2023-05-02T12:02:20.430Z,1396.00
2023-05-02T12:03:20.567Z,1395.00
2023-05-02T12:04:20.500Z,1395.00
2023-05-02T12:05:20.597Z,1394.00
2023-05-02T12:06:20.860Z,1393.00
2023-05-02T12:07:20.652Z,1394.00
2023-05-02T12:08:20.732Z,1392.00
2023-05-02T12:09:21.331Z,1392.00
2023-05-02T12:10:20.845Z,1394.00
2023-05-02T12:11:20.894Z,1390.00
2023-05-02T12:12:20.986Z,1388.00
2023-05-02T12:13:20.998Z,1386.00
2023-05-02T12:14:21.059Z,1384.00
2023-05-02T12:15:21.104Z,1382.00
2023-05-02T12:16:21.227Z,1376.00
2023-05-02T12:17:21.354Z,1371.00